« Back
NWS Peachtree City, Ga » Text Product » AHN Terminal Aerodrome Forecast


Printer-friendly Version
Current Version              Previous Versions:   1  2  3  4  5  6  7  8  9  

Terminal Aerodrome Forecast

873
FTUS42 KFFC 240305 AAB
TAFAHN
TAF AMD
KAHN 240305Z 2403/2424 22006KT P6SM BKN015
     FM240400 22006KT 3SM BR OVC003
      TEMPO 2408/2412 1SM BR OVC002
     FM241500 23008G15KT 3SM BR BKN015 OVC030
     FM241700 23010G20KT P6SM SCT023
     FM242300 27007KT P6SM SCT160=

USA.gov is the U.S. government's official web portal to all federal, state and local government web resources and services.